createdAt,value
2022-10-17T04:30:45.452Z,0.00
2022-10-17T04:31:42.697Z,0.00
2022-10-17T04:32:42.706Z,0.00
2022-10-17T04:33:42.675Z,0.00
2022-10-17T04:34:42.684Z,0.00
2022-10-17T04:35:42.664Z,0.00
2022-10-17T04:36:42.647Z,0.00
2022-10-17T04:37:42.648Z,0.00
2022-10-17T04:38:42.641Z,0.00
2022-10-17T04:39:42.638Z,0.00
2022-10-17T04:40:42.617Z,0.00
2022-10-17T04:41:42.594Z,0.00
2022-10-17T04:42:42.587Z,0.00
2022-10-17T04:43:45.540Z,0.00
2022-10-17T04:44:43.594Z,0.00
2022-10-17T04:45:42.549Z,0.00
2022-10-17T04:46:42.567Z,0.00
2022-10-17T04:47:42.529Z,0.00
2022-10-17T04:48:42.515Z,0.00
2022-10-17T04:49:42.553Z,0.00
2022-10-17T04:50:42.500Z,0.00
2022-10-17T04:51:42.508Z,0.00
2022-10-17T04:52:42.489Z,0.00
2022-10-17T04:53:42.476Z,0.00
2022-10-17T04:54:42.455Z,0.00
2022-10-17T04:55:42.439Z,0.00
2022-10-17T04:56:42.487Z,0.00
2022-10-17T04:57:42.422Z,0.00
2022-10-17T04:58:42.409Z,0.00
2022-10-17T04:59:42.422Z,0.00
2022-10-17T05:00:42.551Z,0.00
2022-10-17T05:01:42.400Z,0.00
2022-10-17T05:02:42.378Z,0.00
2022-10-17T05:03:42.359Z,0.00
2022-10-17T05:04:42.380Z,0.00
2022-10-17T05:05:42.331Z,0.00
2022-10-17T05:06:42.313Z,0.00
2022-10-17T05:07:42.405Z,0.00
2022-10-17T05:08:42.316Z,0.00
2022-10-17T05:09:42.295Z,0.00
2022-10-17T05:10:42.290Z,0.00
2022-10-17T05:11:42.267Z,0.00
2022-10-17T05:12:42.276Z,0.00
2022-10-17T05:13:42.234Z,0.00
2022-10-17T05:14:42.226Z,0.00
2022-10-17T05:15:42.230Z,0.00
2022-10-17T05:16:42.223Z,0.00
2022-10-17T05:17:42.226Z,0.00
2022-10-17T05:18:42.199Z,0.00
2022-10-17T05:19:42.210Z,0.00
2022-10-17T05:20:42.196Z,0.00
2022-10-17T05:21:42.147Z,0.00
2022-10-17T05:22:42.462Z,0.00
2022-10-17T05:23:42.121Z,0.00
2022-10-17T05:24:42.131Z,0.00
2022-10-17T05:25:42.120Z,0.00
2022-10-17T05:26:42.100Z,0.00
2022-10-17T05:27:42.101Z,0.00
2022-10-17T05:28:42.100Z,0.00
2022-10-17T05:29:42.055Z,0.00
2022-10-17T05:30:42.095Z,0.00
2022-10-17T05:31:42.071Z,0.00
2022-10-17T05:32:42.022Z,0.00
2022-10-17T05:33:42.043Z,0.00
2022-10-17T05:34:42.043Z,0.00
2022-10-17T05:35:42.001Z,0.00
2022-10-17T05:36:42.045Z,4.00
2022-10-17T05:37:41.972Z,0.00
2022-10-17T05:38:41.965Z,0.00
2022-10-17T05:39:41.971Z,4.00
2022-10-17T05:40:41.981Z,0.00
2022-10-17T05:41:42.005Z,0.00
2022-10-17T05:42:41.958Z,0.00
2022-10-17T05:43:41.931Z,4.00
2022-10-17T05:44:41.948Z,4.00
2022-10-17T05:45:41.893Z,4.00
2022-10-17T05:46:42.111Z,4.00
2022-10-17T05:47:41.868Z,4.00
2022-10-17T05:48:41.856Z,4.00
2022-10-17T05:49:46.421Z,8.00
2022-10-17T05:50:42.858Z,8.00
2022-10-17T05:51:41.844Z,8.00
2022-10-17T05:52:43.910Z,8.00
2022-10-17T05:53:41.805Z,8.00
2022-10-17T05:54:41.791Z,8.00
2022-10-17T05:55:41.773Z,12.00
2022-10-17T05:56:41.776Z,12.00
2022-10-17T05:57:41.752Z,12.00
2022-10-17T05:58:50.945Z,12.00
2022-10-17T05:59:42.724Z,16.00
2022-10-17T06:00:41.824Z,16.00
2022-10-17T06:01:41.768Z,20.00
2022-10-17T06:02:41.690Z,24.00
2022-10-17T06:03:41.713Z,24.00
2022-10-17T06:04:41.676Z,28.00
2022-10-17T06:05:41.672Z,28.00
2022-10-17T06:06:41.705Z,32.00
2022-10-17T06:07:41.634Z,40.00
2022-10-17T06:08:41.660Z,40.00
2022-10-17T06:09:41.682Z,48.00
2022-10-17T06:10:41.603Z,60.00
2022-10-17T06:11:41.607Z,72.00
2022-10-17T06:12:41.586Z,80.00
2022-10-17T06:13:41.600Z,88.00
2022-10-17T06:14:41.589Z,116.00
2022-10-17T06:15:41.750Z,148.00
2022-10-17T06:16:41.531Z,184.00
2022-10-17T06:17:41.576Z,212.00
2022-10-17T06:18:41.707Z,220.00
2022-10-17T06:19:41.514Z,232.00
2022-10-17T06:20:45.266Z,236.00
2022-10-17T06:21:41.508Z,264.00
2022-10-17T06:22:41.513Z,272.00
2022-10-17T06:23:41.547Z,272.00
2022-10-17T06:24:41.491Z,280.00
2022-10-17T06:25:41.432Z,228.00
2022-10-17T06:26:41.458Z,164.00
2022-10-17T06:27:41.528Z,132.00
2022-10-17T06:28:41.473Z,136.00
2022-10-17T06:29:41.403Z,156.00
2022-10-17T06:30:41.412Z,176.00
2022-10-17T06:31:41.433Z,176.00
2022-10-17T06:32:41.357Z,176.00
2022-10-17T06:33:41.370Z,184.00
2022-10-17T06:34:41.399Z,244.00
2022-10-17T06:35:41.331Z,288.00
2022-10-17T06:36:41.311Z,292.00
2022-10-17T06:37:41.661Z,312.00
2022-10-17T06:38:41.300Z,328.00
2022-10-17T06:39:41.321Z,292.00
2022-10-17T06:40:41.260Z,276.00
2022-10-17T06:41:41.272Z,256.00
2022-10-17T06:42:41.278Z,260.00
2022-10-17T06:43:41.342Z,236.00
2022-10-17T06:44:41.292Z,204.00
2022-10-17T06:45:41.218Z,204.00
2022-10-17T06:46:41.269Z,212.00
2022-10-17T06:47:41.192Z,224.00
2022-10-17T06:48:41.181Z,256.00
2022-10-17T06:49:41.181Z,308.00
2022-10-17T06:50:41.193Z,360.00
2022-10-17T06:51:41.148Z,424.00
2022-10-17T06:52:41.146Z,492.00
2022-10-17T06:53:41.128Z,524.00
2022-10-17T06:54:41.229Z,540.00
2022-10-17T06:55:41.106Z,596.00
2022-10-17T06:56:41.086Z,676.00
2022-10-17T06:57:41.071Z,724.00
2022-10-17T06:58:41.155Z,748.00
2022-10-17T06:59:41.074Z,740.00
2022-10-17T07:00:41.209Z,672.00
2022-10-17T07:01:43.258Z,696.00
2022-10-17T07:02:42.037Z,768.00
2022-10-17T07:03:41.176Z,808.00
2022-10-17T07:04:41.005Z,772.00
2022-10-17T07:05:41.000Z,876.00
2022-10-17T07:06:41.008Z,924.00
2022-10-17T07:07:43.144Z,980.00
2022-10-17T07:08:40.956Z,1120.00
2022-10-17T07:09:40.970Z,1400.00
2022-10-17T07:10:40.942Z,2304.00
2022-10-17T07:11:41.002Z,2412.00
2022-10-17T07:12:40.921Z,1820.00
2022-10-17T07:13:40.969Z,1232.00
2022-10-17T07:14:40.919Z,764.00
2022-10-17T07:15:40.897Z,916.00
2022-10-17T07:16:40.916Z,792.00
2022-10-17T07:17:40.907Z,1024.00
2022-10-17T07:18:40.846Z,1188.00
2022-10-17T07:19:40.858Z,1060.00
2022-10-17T07:20:40.828Z,784.00
2022-10-17T07:21:40.836Z,856.00
2022-10-17T07:22:40.823Z,1088.00
2022-10-17T07:23:40.824Z,976.00
2022-10-17T07:24:40.915Z,948.00
2022-10-17T07:25:40.824Z,784.00
2022-10-17T07:26:40.860Z,716.00
2022-10-17T07:27:40.798Z,508.00
2022-10-17T07:28:40.776Z,408.00
2022-10-17T07:29:40.783Z,404.00
2022-10-17T07:30:40.725Z,400.00
2022-10-17T07:31:40.718Z,380.00
2022-10-17T07:32:40.693Z,380.00
2022-10-17T07:33:40.731Z,356.00
2022-10-17T07:34:40.698Z,344.00
2022-10-17T07:35:40.670Z,340.00
2022-10-17T07:36:40.700Z,360.00
2022-10-17T07:37:40.645Z,408.00
2022-10-17T07:38:40.636Z,564.00
2022-10-17T07:39:40.620Z,588.00
2022-10-17T07:40:40.629Z,652.00
2022-10-17T07:41:40.593Z,680.00
2022-10-17T07:42:40.684Z,732.00
2022-10-17T07:43:40.571Z,852.00
2022-10-17T07:44:40.631Z,872.00
2022-10-17T07:45:40.562Z,832.00
2022-10-17T07:46:40.562Z,704.00
2022-10-17T07:47:40.535Z,780.00
2022-10-17T07:48:40.524Z,944.00
2022-10-17T07:49:40.521Z,852.00
2022-10-17T07:50:40.496Z,900.00
2022-10-17T07:51:40.590Z,872.00
2022-10-17T07:52:40.483Z,796.00
2022-10-17T07:53:42.741Z,752.00
2022-10-17T07:54:40.467Z,788.00
2022-10-17T07:55:40.443Z,720.00
2022-10-17T07:56:40.444Z,808.00
2022-10-17T07:57:40.425Z,948.00
2022-10-17T07:58:40.452Z,924.00
2022-10-17T07:59:40.421Z,1036.00
2022-10-17T08:00:40.468Z,1192.00
2022-10-17T08:01:40.409Z,1216.00
2022-10-17T08:02:40.358Z,1148.00
2022-10-17T08:03:40.388Z,1060.00
2022-10-17T08:04:40.414Z,1100.00
2022-10-17T08:05:40.332Z,1240.00
2022-10-17T08:06:40.401Z,1240.00
2022-10-17T08:07:40.333Z,1080.00
2022-10-17T08:08:40.303Z,1124.00
2022-10-17T08:09:40.285Z,1188.00
2022-10-17T08:10:40.294Z,1308.00
2022-10-17T08:11:40.285Z,1492.00
2022-10-17T08:12:40.251Z,1464.00
2022-10-17T08:13:40.273Z,1388.00
2022-10-17T08:14:40.251Z,1392.00
2022-10-17T08:15:40.241Z,1372.00
2022-10-17T08:16:40.228Z,1396.00
2022-10-17T08:17:40.230Z,1276.00
2022-10-17T08:18:40.203Z,1252.00
2022-10-17T08:19:40.174Z,1232.00
2022-10-17T08:20:40.169Z,1148.00
2022-10-17T08:21:40.184Z,1032.00
2022-10-17T08:22:40.168Z,1152.00
2022-10-17T08:23:40.149Z,1220.00
2022-10-17T08:24:40.126Z,1064.00
2022-10-17T08:25:40.127Z,908.00
2022-10-17T08:26:43.378Z,816.00
2022-10-17T08:27:41.136Z,752.00
2022-10-17T08:28:40.222Z,736.00
2022-10-17T08:29:40.069Z,860.00
2022-10-17T08:30:40.126Z,856.00
2022-10-17T08:31:40.082Z,844.00
2022-10-17T08:32:40.045Z,856.00
2022-10-17T08:33:40.038Z,976.00
2022-10-17T08:34:40.034Z,940.00
2022-10-17T08:35:40.076Z,708.00
2022-10-17T08:36:40.029Z,588.00
2022-10-17T08:37:40.030Z,504.00
2022-10-17T08:38:43.124Z,512.00
2022-10-17T08:39:40.017Z,572.00
2022-10-17T08:40:40.074Z,860.00
2022-10-17T08:41:39.952Z,812.00
2022-10-17T08:42:39.943Z,732.00
2022-10-17T08:43:39.937Z,612.00
2022-10-17T08:44:39.971Z,572.00
2022-10-17T08:45:39.932Z,636.00
2022-10-17T08:46:39.937Z,684.00
2022-10-17T08:47:39.883Z,680.00
2022-10-17T08:48:42.751Z,684.00
2022-10-17T08:49:40.897Z,548.00
2022-10-17T08:50:39.844Z,552.00
2022-10-17T08:51:39.828Z,500.00
2022-10-17T08:52:39.852Z,532.00
2022-10-17T08:53:39.813Z,556.00
2022-10-17T08:54:39.796Z,888.00
2022-10-17T08:55:42.797Z,656.00
2022-10-17T08:56:48.562Z,832.00
2022-10-17T08:57:40.816Z,600.00
2022-10-17T08:58:39.757Z,660.00
2022-10-17T08:59:39.816Z,712.00
2022-10-17T09:00:39.744Z,476.00
2022-10-17T09:01:39.728Z,736.00
2022-10-17T09:02:39.843Z,676.00
2022-10-17T09:03:39.727Z,840.00
2022-10-17T09:04:39.713Z,956.00
2022-10-17T09:05:39.689Z,916.00
2022-10-17T09:06:39.697Z,844.00
2022-10-17T09:07:39.663Z,996.00
2022-10-17T09:08:39.657Z,1044.00
2022-10-17T09:09:39.663Z,772.00
2022-10-17T09:10:39.627Z,964.00
2022-10-17T09:11:39.638Z,996.00
2022-10-17T09:12:39.601Z,736.00
2022-10-17T09:13:39.600Z,840.00
2022-10-17T09:14:39.619Z,792.00
2022-10-17T09:15:39.582Z,2236.00
2022-10-17T09:16:39.562Z,1884.00
2022-10-17T09:17:39.553Z,1392.00
2022-10-17T09:18:39.567Z,1384.00
2022-10-17T09:19:39.576Z,1160.00
2022-10-17T09:20:39.518Z,1308.00
2022-10-17T09:21:39.503Z,1644.00
2022-10-17T09:22:39.529Z,1556.00
2022-10-17T09:23:41.830Z,1680.00
2022-10-17T09:24:39.480Z,1832.00
2022-10-17T09:25:39.483Z,1412.00
2022-10-17T09:26:39.471Z,1772.00
2022-10-17T09:27:39.457Z,2140.00
2022-10-17T09:28:39.478Z,2000.00
2022-10-17T09:29:43.742Z,2020.00
2022-10-17T09:30:45.227Z,1868.00
2022-10-17T09:31:40.390Z,1952.00
2022-10-17T09:32:39.432Z,1440.00
2022-10-17T09:33:53.938Z,760.00
2022-10-17T09:34:40.406Z,784.00
2022-10-17T09:35:39.377Z,612.00
2022-10-17T09:36:39.347Z,940.00
2022-10-17T09:37:39.331Z,1200.00
2022-10-17T09:38:39.361Z,1188.00
2022-10-17T09:39:39.313Z,1108.00
2022-10-17T09:40:39.295Z,924.00
2022-10-17T09:41:45.438Z,1340.00
2022-10-17T09:42:40.298Z,1344.00
2022-10-17T09:43:39.282Z,1660.00
2022-10-17T09:44:39.312Z,1160.00
2022-10-17T09:45:39.320Z,1144.00
2022-10-17T09:46:39.239Z,800.00
2022-10-17T09:47:39.219Z,812.00
2022-10-17T09:48:39.230Z,952.00
2022-10-17T09:49:39.226Z,956.00
2022-10-17T09:50:39.207Z,1244.00
2022-10-17T09:51:39.210Z,1064.00
2022-10-17T09:52:39.191Z,756.00
2022-10-17T09:53:39.158Z,712.00
2022-10-17T09:54:39.167Z,680.00
2022-10-17T09:55:39.131Z,640.00
2022-10-17T09:56:39.139Z,612.00
2022-10-17T09:57:39.144Z,604.00
2022-10-17T09:58:39.101Z,644.00
2022-10-17T09:59:39.109Z,772.00
2022-10-17T10:00:39.196Z,1380.00
2022-10-17T10:01:39.064Z,744.00
2022-10-17T10:02:39.102Z,732.00
2022-10-17T10:03:39.065Z,724.00
2022-10-17T10:04:53.070Z,716.00
2022-10-17T10:05:40.027Z,972.00
2022-10-17T10:06:39.029Z,772.00
2022-10-17T10:07:39.042Z,1240.00
2022-10-17T10:08:38.987Z,1192.00
2022-10-17T10:09:40.194Z,1684.00
2022-10-17T10:10:38.970Z,1264.00
2022-10-17T10:11:38.995Z,2104.00
2022-10-17T10:12:38.965Z,2184.00
2022-10-17T10:13:38.951Z,1852.00
2022-10-17T10:14:38.924Z,856.00
2022-10-17T10:15:38.951Z,2100.00
2022-10-17T10:16:38.926Z,2052.00
2022-10-17T10:17:38.926Z,1960.00
2022-10-17T10:18:38.893Z,1832.00
2022-10-17T10:19:38.902Z,1756.00
2022-10-17T10:20:38.880Z,1812.00
2022-10-17T10:21:38.854Z,1868.00
2022-10-17T10:22:38.880Z,1176.00
2022-10-17T10:23:38.858Z,1728.00
2022-10-17T10:24:38.832Z,1624.00
2022-10-17T10:25:38.806Z,1576.00
2022-10-17T10:26:38.841Z,1184.00
2022-10-17T10:27:38.786Z,836.00
2022-10-17T10:28:38.828Z,700.00
2022-10-17T10:29:38.764Z,836.00
2022-10-17T10:30:39.931Z,712.00
2022-10-17T10:31:38.764Z,636.00
2022-10-17T10:32:38.723Z,676.00
2022-10-17T10:33:41.577Z,724.00
2022-10-17T10:34:38.721Z,924.00
2022-10-17T10:35:38.699Z,596.00
2022-10-17T10:36:38.707Z,572.00
2022-10-17T10:37:38.689Z,588.00
2022-10-17T10:38:38.702Z,784.00
2022-10-17T10:39:38.659Z,1380.00
2022-10-17T10:40:38.655Z,1704.00
2022-10-17T10:41:38.665Z,1724.00
2022-10-17T10:42:38.674Z,1588.00
2022-10-17T10:43:38.626Z,1784.00
2022-10-17T10:44:38.623Z,1716.00
2022-10-17T10:45:54.130Z,1480.00
2022-10-17T10:46:39.588Z,1600.00
2022-10-17T10:47:38.600Z,1396.00
2022-10-17T10:48:38.578Z,1572.00
2022-10-17T10:49:38.621Z,1640.00
2022-10-17T10:50:42.996Z,1392.00
2022-10-17T10:51:39.524Z,1164.00
2022-10-17T10:52:38.534Z,1232.00
2022-10-17T10:53:38.517Z,912.00
2022-10-17T10:55:38.505Z,1404.00
2022-10-17T10:56:38.478Z,1696.00
2022-10-17T10:57:38.490Z,1512.00
2022-10-17T10:58:41.832Z,1536.00
2022-10-17T10:59:38.447Z,1204.00
2022-10-17T11:00:38.493Z,656.00
2022-10-17T11:01:38.488Z,664.00
2022-10-17T11:02:38.412Z,676.00
2022-10-17T11:03:38.467Z,1068.00
2022-10-17T11:04:38.423Z,688.00
2022-10-17T11:05:38.446Z,640.00
2022-10-17T11:06:38.371Z,540.00
2022-10-17T11:07:38.382Z,552.00
2022-10-17T11:08:38.335Z,540.00
2022-10-17T11:09:38.344Z,540.00
2022-10-17T11:10:38.357Z,500.00
2022-10-17T11:11:38.332Z,484.00
2022-10-17T11:12:38.345Z,476.00
2022-10-17T11:13:38.329Z,468.00
2022-10-17T11:14:38.296Z,456.00
2022-10-17T11:15:38.278Z,448.00
2022-10-17T11:16:38.261Z,444.00
2022-10-17T11:17:38.285Z,440.00
2022-10-17T11:18:38.258Z,436.00
2022-10-17T11:19:38.249Z,432.00
2022-10-17T11:20:38.216Z,444.00
2022-10-17T11:21:38.249Z,452.00
2022-10-17T11:22:38.579Z,472.00
2022-10-17T11:23:38.180Z,472.00
2022-10-17T11:24:38.169Z,472.00
2022-10-17T11:25:38.185Z,468.00
2022-10-17T11:26:38.192Z,472.00
2022-10-17T11:27:38.787Z,480.00
2022-10-17T11:28:38.188Z,492.00
2022-10-17T11:29:38.130Z,504.00
2022-10-17T11:30:38.172Z,504.00
2022-10-17T11:31:38.116Z,508.00
2022-10-17T11:32:38.085Z,508.00
2022-10-17T11:33:38.114Z,504.00
2022-10-17T11:34:38.066Z,492.00
2022-10-17T11:35:38.067Z,472.00
2022-10-17T11:36:38.041Z,480.00
2022-10-17T11:37:39.525Z,496.00
2022-10-17T11:38:38.038Z,520.00
2022-10-17T11:39:38.077Z,540.00
2022-10-17T11:40:38.007Z,544.00
2022-10-17T11:41:37.989Z,528.00
2022-10-17T11:42:38.003Z,500.00
2022-10-17T11:43:37.969Z,476.00
2022-10-17T11:44:37.984Z,452.00
2022-10-17T11:45:37.959Z,436.00
2022-10-17T11:46:37.954Z,424.00
2022-10-17T11:47:37.924Z,436.00
2022-10-17T11:48:37.927Z,460.00
2022-10-17T11:49:40.700Z,484.00
2022-10-17T11:53:05.433Z,444.00
2022-10-17T11:53:38.863Z,412.00
2022-10-17T11:54:37.850Z,392.00
2022-10-17T11:55:37.859Z,384.00
2022-10-17T11:56:41.863Z,384.00
2022-10-17T11:57:38.804Z,384.00
2022-10-17T11:58:37.832Z,372.00
2022-10-17T11:59:37.808Z,364.00
2022-10-17T12:00:40.720Z,360.00
2022-10-17T12:01:38.049Z,364.00
2022-10-17T12:02:37.767Z,372.00
2022-10-17T12:03:37.823Z,368.00
2022-10-17T12:04:37.795Z,368.00
2022-10-17T12:05:37.716Z,356.00
2022-10-17T12:06:37.726Z,344.00
2022-10-17T12:07:37.764Z,336.00
2022-10-17T12:08:37.700Z,332.00
2022-10-17T12:09:37.714Z,332.00
2022-10-17T12:10:37.672Z,336.00
2022-10-17T12:11:37.683Z,340.00
2022-10-17T12:12:37.680Z,336.00
2022-10-17T12:13:37.634Z,320.00
2022-10-17T12:14:37.735Z,308.00
2022-10-17T12:15:37.748Z,288.00
2022-10-17T12:16:37.660Z,268.00
2022-10-17T12:17:37.584Z,252.00
2022-10-17T12:18:37.588Z,232.00
2022-10-17T12:19:37.647Z,216.00
2022-10-17T12:20:37.563Z,212.00
2022-10-17T12:21:40.404Z,216.00
2022-10-17T12:22:38.542Z,228.00
2022-10-17T12:23:37.524Z,232.00
2022-10-17T12:24:37.560Z,240.00
2022-10-17T12:25:37.555Z,244.00
2022-10-17T12:26:37.491Z,248.00
2022-10-17T12:27:37.489Z,252.00
2022-10-17T12:28:37.495Z,256.00
2022-10-17T12:29:37.460Z,256.00
2022-10-17T12:30:37.498Z,260.00
2022-10-17T12:31:37.433Z,256.00
2022-10-17T12:32:53.342Z,256.00
2022-10-17T12:33:38.438Z,256.00
2022-10-17T12:34:37.463Z,264.00
2022-10-17T12:35:37.400Z,268.00
2022-10-17T12:36:37.397Z,276.00
2022-10-17T12:37:37.371Z,268.00
2022-10-17T12:38:37.409Z,260.00
2022-10-17T12:39:37.396Z,248.00
2022-10-17T12:40:37.354Z,240.00
2022-10-17T12:41:37.328Z,240.00
2022-10-17T12:42:37.332Z,240.00
2022-10-17T12:43:39.674Z,252.00
2022-10-17T12:44:38.336Z,260.00
2022-10-17T12:45:37.297Z,264.00
2022-10-17T12:46:37.290Z,260.00
2022-10-17T12:47:37.258Z,256.00
2022-10-17T12:48:37.253Z,236.00
2022-10-17T12:49:37.261Z,220.00
2022-10-17T12:50:38.154Z,208.00
2022-10-17T12:51:37.962Z,196.00
2022-10-17T12:52:37.245Z,192.00
2022-10-17T12:53:37.206Z,192.00
2022-10-17T12:54:47.024Z,192.00
2022-10-17T12:55:38.193Z,196.00
2022-10-17T12:56:37.175Z,200.00
2022-10-17T12:57:37.664Z,204.00
2022-10-17T12:58:37.180Z,212.00
2022-10-17T12:59:37.148Z,228.00
2022-10-17T13:00:37.212Z,244.00
2022-10-17T13:01:37.150Z,256.00
2022-10-17T13:02:37.125Z,264.00
2022-10-17T13:03:37.089Z,260.00
2022-10-17T13:04:37.095Z,248.00
2022-10-17T13:05:37.083Z,236.00
2022-10-17T13:06:37.053Z,220.00
2022-10-17T13:07:37.046Z,212.00
2022-10-17T13:08:37.057Z,200.00
2022-10-17T13:09:37.024Z,188.00
2022-10-17T13:10:38.834Z,176.00
2022-10-17T13:11:37.016Z,172.00
2022-10-17T13:12:41.119Z,172.00
2022-10-17T13:13:36.992Z,172.00
2022-10-17T13:14:36.972Z,168.00
2022-10-17T13:15:36.962Z,160.00
2022-10-17T13:16:37.041Z,152.00
2022-10-17T13:17:40.615Z,144.00
2022-10-17T13:18:37.977Z,140.00
2022-10-17T13:20:36.912Z,140.00
2022-10-17T13:21:36.896Z,140.00
2022-10-17T13:22:36.886Z,144.00
2022-10-17T13:23:36.926Z,148.00
2022-10-17T13:24:36.867Z,148.00
2022-10-17T13:25:39.508Z,152.00
2022-10-17T13:26:36.868Z,148.00
2022-10-17T13:27:36.853Z,148.00
2022-10-17T13:28:39.376Z,148.00
2022-10-17T13:29:36.847Z,148.00
2022-10-17T13:30:36.800Z,152.00
2022-10-17T13:31:36.801Z,160.00
2022-10-17T13:32:36.779Z,160.00
2022-10-17T13:33:36.758Z,160.00
2022-10-17T13:34:36.777Z,156.00
2022-10-17T13:35:55.728Z,148.00
2022-10-17T13:36:37.740Z,148.00
2022-10-17T13:37:36.749Z,144.00
2022-10-17T13:38:39.013Z,136.00
2022-10-17T13:39:54.364Z,132.00
2022-10-17T13:40:49.051Z,128.00
2022-10-17T13:41:37.685Z,124.00
2022-10-17T13:42:36.697Z,120.00
2022-10-17T13:43:36.646Z,120.00
2022-10-17T13:44:38.542Z,116.00
2022-10-17T13:45:36.626Z,116.00
2022-10-17T13:46:38.391Z,112.00
2022-10-17T13:47:36.634Z,112.00
2022-10-17T13:48:36.600Z,108.00
2022-10-17T13:49:36.616Z,108.00
2022-10-17T13:50:44.756Z,108.00
2022-10-17T13:51:37.578Z,108.00
2022-10-17T13:52:36.543Z,116.00
2022-10-17T13:53:36.598Z,120.00
2022-10-17T13:54:36.534Z,128.00
2022-10-17T13:55:36.525Z,136.00
2022-10-17T13:56:36.505Z,132.00
2022-10-17T13:57:36.516Z,144.00
2022-10-17T13:58:36.496Z,148.00
2022-10-17T13:59:36.513Z,148.00
2022-10-17T14:00:36.565Z,148.00
2022-10-17T14:01:36.468Z,144.00
2022-10-17T14:02:36.483Z,136.00
2022-10-17T14:03:48.165Z,128.00
2022-10-17T14:05:04.016Z,128.00
2022-10-17T14:05:37.431Z,132.00
2022-10-17T14:06:36.413Z,136.00
2022-10-17T14:07:58.060Z,144.00
2022-10-17T14:08:37.449Z,148.00
2022-10-17T14:09:36.363Z,148.00
2022-10-17T14:10:36.385Z,152.00
2022-10-17T14:11:36.361Z,148.00
2022-10-17T14:12:36.389Z,140.00
2022-10-17T14:13:36.329Z,136.00
2022-10-17T14:14:51.984Z,132.00
2022-10-17T14:15:37.384Z,136.00
2022-10-17T14:16:36.307Z,136.00
2022-10-17T14:17:36.274Z,136.00
2022-10-17T14:18:36.853Z,136.00
2022-10-17T14:19:36.299Z,136.00
2022-10-17T14:21:44.157Z,136.00
2022-10-17T14:22:37.308Z,132.00
2022-10-17T14:23:36.227Z,132.00
2022-10-17T14:24:36.197Z,128.00
2022-10-17T14:25:36.216Z,124.00
2022-10-17T14:26:36.196Z,128.00
2022-10-17T14:27:36.171Z,128.00
2022-10-17T14:28:36.217Z,124.00
2022-10-17T14:29:36.207Z,120.00
2022-10-17T14:30:55.832Z,116.00
2022-10-17T14:31:37.140Z,116.00
2022-10-17T14:32:36.117Z,116.00
2022-10-17T14:33:38.522Z,116.00
2022-10-17T14:34:37.133Z,120.00
2022-10-17T14:35:41.939Z,124.00
2022-10-17T14:36:37.093Z,124.00
2022-10-17T14:37:36.069Z,124.00
2022-10-17T14:38:36.086Z,120.00
2022-10-17T14:39:36.060Z,116.00
2022-10-17T14:40:36.037Z,112.00
2022-10-17T14:41:44.120Z,108.00
2022-10-17T14:42:37.027Z,104.00
2022-10-17T14:43:36.018Z,104.00
2022-10-17T14:44:35.980Z,100.00
2022-10-17T14:45:35.992Z,100.00
2022-10-17T14:46:35.961Z,100.00
2022-10-17T14:47:43.682Z,100.00
2022-10-17T14:48:36.971Z,108.00
2022-10-17T14:49:35.964Z,112.00
2022-10-17T14:50:36.046Z,116.00
2022-10-17T14:51:44.928Z,116.00
2022-10-17T14:52:37.053Z,116.00
2022-10-17T14:53:35.885Z,112.00
2022-10-17T14:54:35.924Z,116.00
2022-10-17T14:55:35.882Z,112.00
2022-10-17T14:56:35.896Z,112.00
2022-10-17T14:57:35.849Z,112.00
2022-10-17T14:58:35.845Z,104.00
2022-10-17T14:59:53.384Z,104.00
2022-10-17T15:00:36.813Z,104.00
2022-10-17T15:01:35.837Z,104.00
2022-10-17T15:02:35.798Z,104.00
2022-10-17T15:03:35.849Z,108.00
2022-10-17T15:04:35.792Z,112.00
2022-10-17T15:05:35.777Z,108.00
2022-10-17T15:06:35.747Z,108.00
2022-10-17T15:07:35.734Z,104.00
2022-10-17T15:08:35.817Z,104.00
2022-10-17T15:09:35.709Z,100.00
2022-10-17T15:10:35.754Z,96.00
2022-10-17T15:11:35.684Z,92.00
2022-10-17T15:12:35.670Z,84.00
2022-10-17T15:13:40.958Z,84.00
2022-10-17T15:14:36.659Z,80.00
2022-10-17T15:15:35.684Z,80.00
2022-10-17T15:16:35.654Z,72.00
2022-10-17T15:17:35.716Z,76.00
2022-10-17T15:18:35.615Z,76.00
2022-10-17T15:19:35.619Z,76.00
2022-10-17T15:20:35.589Z,76.00
2022-10-17T15:21:43.205Z,76.00
2022-10-17T15:22:36.584Z,76.00
2022-10-17T15:23:35.556Z,72.00
2022-10-17T15:24:35.548Z,72.00
2022-10-17T15:25:35.539Z,68.00
2022-10-17T15:26:35.567Z,68.00
2022-10-17T15:27:35.584Z,68.00
2022-10-17T15:28:35.538Z,64.00
2022-10-17T15:29:35.509Z,60.00
2022-10-17T15:30:35.484Z,64.00
2022-10-17T15:31:35.485Z,60.00
2022-10-17T15:32:35.494Z,60.00
2022-10-17T15:33:35.467Z,56.00
2022-10-17T15:34:35.461Z,48.00
2022-10-17T15:35:35.427Z,48.00
2022-10-17T15:36:35.417Z,44.00
2022-10-17T15:37:35.457Z,48.00
2022-10-17T15:38:35.406Z,44.00
2022-10-17T15:39:35.430Z,44.00
2022-10-17T15:40:35.375Z,40.00
2022-10-17T15:41:35.367Z,40.00
2022-10-17T15:42:35.373Z,40.00
2022-10-17T15:43:35.373Z,40.00
2022-10-17T15:44:35.331Z,40.00
2022-10-17T15:45:35.317Z,36.00
2022-10-17T15:46:35.326Z,36.00
2022-10-17T15:47:35.301Z,40.00
2022-10-17T15:48:35.318Z,40.00
2022-10-17T15:49:35.283Z,40.00
2022-10-17T15:50:35.272Z,40.00
2022-10-17T15:51:35.264Z,36.00
2022-10-17T15:52:35.247Z,36.00
2022-10-17T15:53:35.278Z,36.00
2022-10-17T15:54:35.213Z,32.00
2022-10-17T15:55:35.267Z,32.00
2022-10-17T15:56:35.206Z,28.00
2022-10-17T15:57:35.183Z,28.00
2022-10-17T15:58:35.222Z,28.00
2022-10-17T15:59:35.188Z,28.00
2022-10-17T16:00:35.233Z,20.00
2022-10-17T16:01:35.159Z,24.00
2022-10-17T16:02:35.132Z,20.00
2022-10-17T16:03:35.121Z,20.00
2022-10-17T16:04:35.111Z,16.00
2022-10-17T16:05:35.131Z,16.00
2022-10-17T16:06:35.107Z,16.00
2022-10-17T16:07:35.072Z,12.00
2022-10-17T16:08:35.059Z,12.00
2022-10-17T16:09:35.047Z,12.00
2022-10-17T16:10:35.096Z,8.00
2022-10-17T16:11:35.061Z,8.00
2022-10-17T16:12:35.017Z,12.00
2022-10-17T16:13:35.015Z,12.00
2022-10-17T16:14:35.015Z,8.00
2022-10-17T16:15:34.990Z,8.00
2022-10-17T16:16:35.014Z,4.00
2022-10-17T16:17:34.973Z,8.00
2022-10-17T16:18:34.965Z,8.00
2022-10-17T16:19:34.995Z,8.00
2022-10-17T16:20:34.975Z,4.00
2022-10-17T16:21:34.932Z,4.00
2022-10-17T16:22:34.935Z,4.00
2022-10-17T16:23:34.898Z,4.00
2022-10-17T16:24:34.910Z,4.00
2022-10-17T16:25:34.911Z,4.00
2022-10-17T16:26:34.877Z,4.00
2022-10-17T16:27:34.863Z,4.00
2022-10-17T16:28:34.881Z,4.00
2022-10-17T16:29:34.862Z,4.00
2022-10-17T16:30:34.858Z,4.00
2022-10-17T16:31:34.875Z,4.00
2022-10-17T16:32:34.811Z,4.00
2022-10-17T16:33:34.810Z,0.00
2022-10-17T16:34:34.783Z,4.00
2022-10-17T16:35:37.482Z,4.00
2022-10-17T16:36:34.763Z,0.00
2022-10-17T16:37:34.770Z,0.00
2022-10-17T16:38:34.764Z,0.00
2022-10-17T16:39:34.739Z,0.00
2022-10-17T16:40:34.705Z,0.00
2022-10-17T16:41:34.715Z,0.00
2022-10-17T16:42:34.700Z,4.00
2022-10-17T16:43:34.709Z,4.00
2022-10-17T16:44:34.666Z,4.00
2022-10-17T16:45:34.661Z,0.00
2022-10-17T16:46:34.710Z,0.00
2022-10-17T16:47:34.647Z,0.00
2022-10-17T16:48:34.810Z,0.00
2022-10-17T16:49:34.611Z,0.00
2022-10-17T16:50:34.628Z,0.00
2022-10-17T16:51:34.623Z,0.00
2022-10-17T16:52:34.605Z,0.00
2022-10-17T16:53:34.580Z,0.00
2022-10-17T16:54:34.566Z,0.00
2022-10-17T16:55:34.602Z,0.00
2022-10-17T16:56:34.570Z,0.00
2022-10-17T16:57:34.646Z,0.00
2022-10-17T16:58:34.590Z,0.00
2022-10-17T16:59:34.573Z,0.00
2022-10-17T17:00:34.625Z,0.00
2022-10-17T17:01:34.492Z,0.00
2022-10-17T17:02:34.764Z,0.00
2022-10-17T17:03:34.488Z,0.00
2022-10-17T17:04:34.455Z,0.00
2022-10-17T17:05:34.459Z,0.00
2022-10-17T17:06:34.481Z,0.00
2022-10-17T17:07:34.427Z,0.00
2022-10-17T17:08:34.415Z,0.00
2022-10-17T17:09:34.438Z,0.00
2022-10-17T17:10:34.423Z,0.00
2022-10-17T17:11:34.386Z,0.00